Riemst, Belgium
Current Conditions -  °F | °C
As of 1:55 AM on Saturday 25 Oct 2014 (Local Time) from EHBK Reporting Station
Drizzle Drizzle  
Wind Chill: 50°   Ceiling: 800
Heat Index: 50°   Visibility: 4mi
Dew Point: 50°   Wind: 13mph
Humidity: 100%   Direction: 200°SSW
Pressure: 30.03"   Gusts: NA
Location:  50.81°N, 5.6°E
Report Text: EHBK 242355Z AUTO 20011KT 7000 DZ FEW004 SCT007 BKN008 BKN015CB10/10 Q1017 RERA REDZ
Loading
Personal Weather Stations






























Interactive Weather Map
Tropical Storm Tracking
New forecast layout! Learn more

10-Day Weather Forecast

Advertisements
Track Severe Weather on mobile